Nassim Bounedjah

Chief Scout - USM Alger
3 Apr 2027
Saturday
Process

Personality

Adaptability (4) Ambition (1) Controversy (17) Loyalty (8) Pressure (1) Professionalism (2) Sportsmanship (18) Temperament (3)

Profile

Coaching Style Democratic
License Continental A
Determination 7
Man Management 10
Motivating 12
Discipline 10
Job Satisfaction
99%
Fatigue
0%
Role Chief Scout
Wage 33.4K p/w
Contract 14.03.2028

Performance

Behaviour Good
Training Effectiveness
28%
Player Development
55%
Injury Prevention
35%
Tactical Implementation
30%

Recent Events

Assessed a player now
Attended a recruitment meeting now
Recommended a transfer target now
Attended a recruitment meeting now
Recommended a transfer target now
Attended a recruitment meeting now
Attended a recruitment meeting now
Assessed a player 7d ago

Currently Monitoring

186
Player Club Status Ability Confidence Watched Last Observed Latest Vote
Sabil Hansen Randers Active 105 / 124 40% 2 02.04.2027 -
Papa Gassama US Bougouba Active 67 / 82 40% 2 02.04.2027 -
Jakub Adkonis Lechia Active 87 / 98 40% 1 02.04.2027 -
Lucas Jetten Cambuur Active 110 / 116 40% 2 31.03.2027 -
Jacopo Bacci Sorrento Active 100 / 109 40% 2 31.03.2027 -
Vinícius Lira Santos Active 119 / 115 40% 3 29.03.2027 -
Jakub Jendryka Ruch Active 87 / 78 40% 2 29.03.2027 -
Riley Owen Pergolettese Active 105 / 108 40% 1 29.03.2027 -
James Dornelly Peterborough United Active 100 / 118 40% 2 28.03.2027 -
Alejo Fernández Kayserispor Active 91 / 104 40% 3 26.03.2027 -
Bohdan Budko AZ Active 111 / 113 40% 1 26.03.2027 -
Alessio Insignito Spezia Active 96 / 101 40% 1 26.03.2027 -
Gopolang Taunyane Wa All Stars Active 92 / 114 40% 1 25.03.2027 -
Jake Batty Burton Albion Active 96 / 98 40% 1 25.03.2027 -
Eduardo Felicíssimo Sporting CP Active 103 / 114 40% 2 24.03.2027 -
Khalfan Nader Al Shaab Active 99 / 104 40% 1 20.03.2027 -
Maldini Kacurri Grimsby Town Active 95 / 94 40% 2 19.03.2027 -
Elie N'Gatta Sochaux Active 97 / 91 40% 1 19.03.2027 -
Jaygo van Ommeren Utrecht Active 103 / 124 40% 1 19.03.2027 -
Luca Barani Forli Active 92 / 99 40% 1 14.03.2027 -
Maxim Radchenko Rostov Active 78 / 89 40% 2 12.03.2027 -
Surprise Manthosi Polokwane City Active 92 / 108 40% 1 11.03.2027 -
Edwin Asamoah Berekum Chelsea Active 89 / 98 40% 2 08.03.2027 -
Mobin Dehghan Al Wahda Active 91 / 102 40% 1 08.03.2027 -
Sergey Chernov Zenit Active 79 / 71 40% 1 07.03.2027 -
Momodou Jatta Al Jazira Active 99 / 110 40% 1 07.03.2027 -
Simone Kosijer Triestina Active 91 / 99 40% 1 06.03.2027 -
Ibrahim Khalfan Baniyas Active 90 / 95 40% 1 06.03.2027 -
Gonçalo Oliveira Benfica Active 105 / 117 40% 2 05.03.2027 -
Davinchi Getafe Active 114 / 132 40% 1 05.03.2027 -
Konta Ismaily Active 87 / 101 40% 1 05.03.2027 -
Dmitry Borodin Dinamo St Petersburg Active 77 / 76 40% 1 03.03.2027 -
Fuzy Taylor Medeama Active 83 / 82 40% 1 03.03.2027 -
Lucas Mbamba Westerlo Active 85 / 83 40% 1 03.03.2027 -
Dmitry Pestryakov Dinamo Moscow Active 112 / 136 40% 1 02.03.2027 -
Dadi Mouaki CS Constantine Active 93 / 94 76% 1 18.01.2027 Approve
Ali Saleh Al Wasl Active 119 / 112 40% 3 13.01.2027 -
Abdullah Al-Khaibari Al-Nassr Active 113 / 111 40% 1 13.01.2027 -
Kwadwo Kudus Hasaacas Active 102 / 91 40% 1 13.01.2027 -
Roberto Iliev Slavia Sofia Active 93 / 92 40% 4 12.01.2027 -
Teboho Tau Ajax Cape Town Active 105 / 101 40% 4 12.01.2027 -
Brian Figueroa Morelia Active 115 / 112 40% 4 12.01.2027 -
Pinna Fortaleza Active 93 / 94 40% 1 12.01.2027 -
Haman Mandjan Al-Ra'ed Active 103 / 95 40% 1 12.01.2027 -
Álvaro Medrán Al-Ettifaq Active 131 / 129 40% 2 10.01.2027 -
Gift Ngcobo SuperSport United Active 110 / 125 40% 2 10.01.2027 -
Peter Olayinka Al-Wehda Active 118 / 116 40% 1 10.01.2027 -
Mehdi Zeffane ES Mostaganem Lost 106 / 118 76% 1 07.01.2027 -
Nabil Alioui Damac Active 116 / 108 40% 7 01.01.2027 -
Jonathan Sulemana BA All Stars Lost 108 / 103 40% 1 01.01.2027 -
Hicham Khaloua Al-Ra'ed Active 100 / 92 40% 3 31.12.2026 -
Mohau Nkota Al-Ettifaq Active 125 / 122 40% 7 30.12.2026 -
Robert Ndip Tambe ES Mostaganem Active 105 / 105 42% 1 / 1m 30.12.2026 -
Ali Haroun ES Mostaganem Active 96 / 96 30% 1 / 1m 30.12.2026 -
Mustafa Hekimoğlu Paradou Active 121 / 129 30% 1 / 1m 30.12.2026 -
Son Ludogorets Active 120 / 138 40% 1 30.12.2026 -
Ante Roguljić Diosgyor Active 123 / 116 40% 1 30.12.2026 -
Velemseni Ndwandwe Golden Arrows Active 110 / 106 40% 2 28.12.2026 -
Saad Al-Salouli Al-Ra'ed Active 103 / 102 40% 1 28.12.2026 -
Younes El Bahraoui Al-Taawoun Active 108 / 110 40% 7 27.12.2026 Monitor
Lebohang Maboe Kaizer Chiefs Active 112 / 108 40% 3 27.12.2026 -
Amine Bassi CR Belouizdad Active 127 / 118 40% 1 27.12.2026 -
Yassine Benzia Al-Fayha Active 122 / 116 40% 2 26.12.2026 -
Hassan Saber Ismaily Active 71 / 87 40% 2 25.12.2026 -
Ivan Sorokin Spartak Moscow Active 76 / 88 40% 1 25.12.2026 -
Hamza Sakhi Hajer Active 111 / 106 40% 1 23.12.2026 -
Jason Al-Fayha Active 131 / 121 40% 6 22.12.2026 -
Mohamed Kanno Al-Hilal Active 123 / 118 40% 6 22.12.2026 -
Trezeguet Al-Riyadh Active 131 / 126 40% 4 22.12.2026 -
Agustín Ramírez Inter Active 117 / 102 40% 2 21.12.2026 -
Abderrahmane Meziane CR Belouizdad Active 110 / 101 40% 1 21.12.2026 -
Alfredo Garcia La Equidad Active 155 / 153 40% 3 18.12.2026 -
Lebogang Erasmus Platinum Stars Active 116 / 122 40% 2 18.12.2026 -
Jordan Roberts Stevenage Active 108 / 105 40% 1 17.12.2026 -
Ibrahim Cissoko Zwolle Active 118 / 123 40% 1 17.12.2026 -
Matías González Volos NPS Active 113 / 127 40% 1 16.12.2026 -
Alejandro Andrade Morelia Active 106 / 118 40% 1 16.12.2026 -
Siyanda Msani University of Pretoria Active 112 / 104 40% 1 16.12.2026 -
Hassan Al-Enezi Al-Mojzel Active 83 / 78 40% 4 14.12.2026 -
Sultan Mandash Al-Hilal Active 117 / 111 40% 5 14.12.2026 -
Jean Charles Ahoua Al-Faisaly Active 102 / 102 40% 2 14.12.2026 -
Faisal Al-Abdulwahed Al-Fateh Active 91 / 87 40% 2 14.12.2026 -
Ricardo Solbes Unión de Santa Fe Active 92 / 103 40% 2 14.12.2026 -
Tiago Pucciarelli FK Senica Active 100 / 97 40% 3 13.12.2026 -
Adam Pudil Zlate Moravce Active 85 / 92 40% 1 13.12.2026 -
Sergey Gaiduk Salyut Active 75 / 72 40% 1 13.12.2026 -
Youssef Hassan Al Shabab Active 118 / 124 40% 2 11.12.2026 -
Pedro Rebocho Al-Khaleej Active 118 / 119 40% 2 10.12.2026 -
Valentín Vada Damac Active 119 / 119 40% 2 10.12.2026 -
Mohamed El Khaloui Al Dhafra Active 108 / 106 40% 1 09.12.2026 -
Firas Ben Larbi Sharjah Active 123 / 119 40% 5 08.12.2026 -
Jobson Al Dhafra Active 125 / 130 40% 4 08.12.2026 Monitor
Ibrahim Bayesh Al Dhafra Active 124 / 125 40% 1 08.12.2026 -
Brahian Palacios Al Wasl Active 118 / 111 40% 3 07.12.2026 -
Nicolás Giménez Al Wasl Active 126 / 128 40% 2 07.12.2026 Needs More Info
Moussa N'Diaye Al Nasr Active 115 / 125 40% 3 06.12.2026 -
Nduduzo Sibiya Golden Arrows Active 114 / 102 40% 1 06.12.2026 -
Brooklyn Poggenpoel Maritzburg United Active 116 / 121 40% 1 06.12.2026 -
Mackenzie Hunt Baniyas Active 98 / 110 40% 1 06.12.2026 -
Luther Zwane Platinum Stars Active 103 / 110 40% 5 04.12.2026 -
Brahima Diarra Al Wahda Active 117 / 120 40% 5 04.12.2026 -
Kristoffer Zachariassen Ferencvaros Active 115 / 132 40% 2 04.12.2026 -
Marcel Reguła Zaglebie Active 108 / 122 40% 2 04.12.2026 -
Julián Vignolo Toulouse FC Active 109 / 106 40% 1 04.12.2026 -
João Moreira Al Nasr Active 116 / 127 40% 2 03.12.2026 -
Kyreece Lisbie Colchester United Active 110 / 108 40% 1 03.12.2026 -
Bernardo Folha Al Wahda Active 114 / 122 40% 2 01.12.2026 -
Luke Baartman Chippa United Active 109 / 109 40% 5 29.11.2026 -
Suhail Al-Noobi Baniyas Active 109 / 114 40% 1 29.11.2026 -
Caio Lucas Al Ain Active 128 / 118 40% 2 26.11.2026 -
Ahmed Hamdi Ittihad Active 111 / 103 40% 1 26.11.2026 -
Ronaldo Maarman University of Pretoria Active 100 / 103 40% 1 25.11.2026 -
Abdulmalik Al-Jaber Al-Nassr Active 99 / 105 40% 2 23.11.2026 -
Iuri Medeiros Ujpest Active 126 / 113 40% 1 23.11.2026 -
Kaku Al Ain Active 123 / 119 40% 1 22.11.2026 -
Leandrinho Sharjah Active 114 / 119 40% 3 21.11.2026 -
Mihai Lixandru Al-Fateh Active 115 / 109 40% 1 20.11.2026 -
Alfa Semedo Al-Fayha Active 116 / 121 40% 3 19.11.2026 -
Hassan Al Menhali Al Shabab Active 107 / 110 40% 2 19.11.2026 -
Nasser Al Shamsi Al Shabab Active 113 / 124 40% 1 19.11.2026 -
Lancine Bamba Al Wasl Active 79 / 79 40% 2 17.11.2026 -
Ben Ahmed Kohili Paradou Active 99 / 111 40% 2 13.11.2026 Needs More Info
Saeed Al Naqbi Al Ahli Active 117 / 127 40% 1 13.11.2026 -
Erik Al Ahli Active 118 / 112 40% 3 08.11.2026 -
Igor Serrote Al Jazira Active 114 / 110 40% 1 08.11.2026 -
Amar Yasser AE Kition Active 75 / 80 40% 1 08.11.2026 -
Maid Ahmed Al Wahda Active 72 / 70 40% 1 08.11.2026 -
Alan Coria Defensa y Justicia Active 103 / 106 40% 3 07.11.2026 -
Csanád Vilmos Dénes Debrecen Active 97 / 123 40% 1 07.11.2026 -
Richard Akonnor Al Jazira Active 108 / 109 40% 2 04.11.2026 -
Mohammed Al-Dossary Al-Ra'ed Active 99 / 95 40% 1 04.11.2026 -
Julián Palacios Unión de Santa Fe Active 123 / 114 40% 1 04.11.2026 -
Karim El Berkaoui Al Dhafra Active 125 / 123 40% 2 01.11.2026 -
Juanjo Narváez Al-Ra'ed Active 117 / 117 40% 2 01.11.2026 -
Amer Ismail Al Ahli Active 119 / 122 40% 2 31.10.2026 -
Hamed Al-Ghamdi Al-Wehda Active 108 / 111 40% 1 31.10.2026 -
Matías Pellegrini Vélez Active 122 / 117 40% 1 30.10.2026 -
Saeed Al Naqbi Al Shabab Active 106 / 101 40% 1 30.10.2026 -
Ali Adnan Al-Wehda Active 106 / 115 40% 2 29.10.2026 -
Ousmane Camara Sharjah Active 121 / 115 40% 1 29.10.2026 -
Hassan Beja AFC Leopards Active 73 / 100 40% 5 28.10.2026 -
Aljoša Matko Ujpest Active 112 / 124 40% 2 28.10.2026 -
Ziad Ayoub Al Ahly Active 74 / 85 40% 2 26.10.2026 -
Renato Tapia Al Wasl Active 135 / 142 40% 3 26.10.2026 -
Hugo Al Wasl Active 119 / 108 40% 1 26.10.2026 -
Saviour Godwin Baniyas Active 120 / 125 40% 3 23.10.2026 -
Mohammad Ghorbani Al Wahda Active 114 / 109 40% 2 20.10.2026 -
Amur Balkizov Kaluga Active 70 / 78 40% 1 20.10.2026 -
Nasser Saeed Al Shaab Active 108 / 112 40% 2 17.10.2026 -
Saeed Baattia Al-Fateh Active 109 / 106 40% 2 17.10.2026 -
Bradley Mothiba SuperSport United Active 109 / 107 40% 1 17.10.2026 -
Vitaly Dunay (Karpenko) Chaika Active 83 / 77 40% 1 13.10.2026 -
Trévis Dago Stade Lavallois Active 102 / 106 40% 2 12.10.2026 -
Muhamed Suwareh Al Dhafra Active 76 / 82 40% 1 12.10.2026 -
Abdalla Ramadan Al Jazira Active 109 / 118 40% 1 07.10.2026 -
Kamogelo Sebelebele Orlando Pirates Active 105 / 127 40% 1 07.10.2026 -
Walid Al Junaibi Al Shabab Active 115 / 109 40% 1 06.10.2026 -
Manuel Rodríguez Millonarios Active 94 / 103 40% 1 05.10.2026 -
Marko Brkić NK Krka Active 88 / 110 40% 1 27.09.2026 -
Ibrahim Al-Zahrani Al-Taawoun Active 68 / 65 40% 1 22.09.2026 -
Alan Salas San Lorenzo Active 100 / 115 40% 1 16.09.2026 -
Sam Svanberg BK Hacken Active 69 / 86 40% 1 14.09.2026 -
Adham Alaa Ittihad Active 66 / 71 40% 1 14.09.2026 -
Samuel Oppong Al Ahly Active 73 / 78 40% 1 13.09.2026 -
Louay Labidi Al-Hilal Active 65 / 77 40% 1 12.09.2026 -
Lucciano Reinoso Caracas Active 81 / 89 40% 1 11.09.2026 -
Ruben Ramos LA Galaxy Active 86 / 84 40% 1 11.09.2026 -
Facundo García Almirante Brown Active 94 / 95 40% 1 10.09.2026 -
Bruno Hernández Cracovia Active 88 / 88 40% 1 10.09.2026 -
Moise Mbombo Kenya Police Active 80 / 75 40% 1 10.09.2026 -
Lautaro Díaz San Martín Active 78 / 88 40% 1 09.09.2026 -
Nikita Kuzin Kaluga Active 71 / 83 40% 1 09.09.2026 -
Ibrahim Yaqoob Al Ahli Active 109 / 118 40% 1 07.09.2026 -
Nawaf Al-Habashi Al-Hilal Active 110 / 104 40% 1 07.09.2026 -
Aubrey Modiba Mamelodi Sundowns Active 119 / 123 40% 1 05.09.2026 -
Hlompho Mothiba Ajax Cape Town Active 64 / 60 40% 1 04.09.2026 -
Abdellah Debbari ASO Chlef Active 92 / 100 72% 1 24.08.2026 Approve
Shane Nti Brighton Active 96 / 98 40% 1 23.08.2026 -
Nika Kvaratskhelia Dinamo Batumi Active 70 / 76 40% 1 20.08.2026 -
Hristo Tonev Slavia Sofia Active 64 / 72 40% 2 13.08.2026 -
Rúben Canedo Al Wahda Active 110 / 114 40% 1 09.08.2026 -
Yakou Meïté Damac Active 106 / 106 40% 1 09.08.2026 -
Vakhtang Salia Newcastle United Active 88 / 97 40% 1 06.08.2026 -
Nawaf Al-Bishri Al-Hazem Active 74 / 86 40% 1 06.08.2026 -
Mamadou Ndiaye Al Jazira Active 73 / 69 40% 1 05.08.2026 -
Juan Otero Gijón Active 135 / 139 40% 1 01.08.2026 -